Elkton, Ohio
Current Conditions -  °F | °C
As of 6:47 PM on Wednesday 28 Jan 2015 (Local Time) from KBVI Reporting Station
Clear Clear  
Wind Chill: 21°   Ceiling: Unl
Heat Index: 21°   Visibility: 10mi
Dew Point:   Wind: 3mph
Humidity: 54%   Direction: 170°S
Pressure: 30.29"   Gusts: NA
Location:  40.76°N, 80.7°W
Report Text: KBVI 282347Z 17003KT 10SM CLR M06/M14 A3029
Loading
Personal Weather Stations






























Interactive Weather Map New forecast layout! Learn more

10-Day Weather Forecast

Advertisements
Track Severe Weather on mobile